createdAt,value
2022-10-11T00:00:20.023Z,5.82
2022-10-11T00:02:51.930Z,5.81
2022-10-11T00:05:24.006Z,5.79
2022-10-11T00:07:55.355Z,5.76
2022-10-11T00:10:26.666Z,5.73
2022-10-11T00:12:57.670Z,5.70
2022-10-11T00:15:28.864Z,5.70
2022-10-11T00:18:04.473Z,5.68
2022-10-11T00:20:32.642Z,5.65
2022-10-11T00:23:03.899Z,5.64
2022-10-11T00:25:35.042Z,5.62
2022-10-11T00:28:06.256Z,5.60
2022-10-11T00:30:37.330Z,5.58
2022-10-11T00:33:08.268Z,5.56
2022-10-11T00:35:42.094Z,5.56
2022-10-11T00:38:13.435Z,5.56
2022-10-11T00:40:44.746Z,5.57
2022-10-11T00:43:21.742Z,5.57
2022-10-11T00:46:03.188Z,5.58
2022-10-11T00:48:46.106Z,5.56
2022-10-11T00:51:22.881Z,5.55
2022-10-11T00:53:54.734Z,5.52
2022-10-11T00:56:28.303Z,5.50
2022-10-11T00:59:01.013Z,5.47
2022-10-11T01:01:32.164Z,5.46
2022-10-11T01:04:04.111Z,5.44
2022-10-11T01:06:35.998Z,5.45
2022-10-11T01:09:07.646Z,5.42
2022-10-11T01:11:41.511Z,5.39
2022-10-11T01:14:21.052Z,5.34
2022-10-11T01:16:58.378Z,5.30
2022-10-11T01:19:51.668Z,5.28
2022-10-11T01:22:45.119Z,5.27
2022-10-11T01:25:39.301Z,5.27
2022-10-11T01:28:28.140Z,5.29
2022-10-11T01:31:02.295Z,5.28
2022-10-11T01:33:39.036Z,5.29
2022-10-11T01:36:27.867Z,5.27
2022-10-11T01:39:07.429Z,5.28
2022-10-11T01:41:50.187Z,5.29
2022-10-11T01:44:23.121Z,5.29
2022-10-11T01:46:55.286Z,5.31
2022-10-11T01:49:26.576Z,5.29
2022-10-11T01:52:00.792Z,5.29
2022-10-11T01:54:56.959Z,5.26
2022-10-11T01:57:28.356Z,5.25
2022-10-11T02:00:17.273Z,5.23
2022-10-11T02:03:12.129Z,5.22
2022-10-11T02:05:54.861Z,5.24
2022-10-11T02:08:50.014Z,5.24
2022-10-11T02:11:27.068Z,5.24
2022-10-11T02:14:12.959Z,5.25
2022-10-11T02:16:46.824Z,5.25
2022-10-11T02:19:20.776Z,5.26
2022-10-11T02:21:55.032Z,5.26
2022-10-11T02:24:38.108Z,5.25
2022-10-11T02:27:10.896Z,5.22
2022-10-11T02:29:45.454Z,5.19
2022-10-11T02:32:18.431Z,5.18
2022-10-11T02:34:55.144Z,5.17
2022-10-11T02:37:40.867Z,5.16
2022-10-11T02:40:23.886Z,5.13
2022-10-11T02:43:01.465Z,5.08
2022-10-11T02:45:37.996Z,5.00
2022-10-11T02:48:11.699Z,4.97
2022-10-11T02:50:44.251Z,4.94
2022-10-11T02:53:15.906Z,4.91
2022-10-11T02:55:47.592Z,4.89
2022-10-11T02:58:18.815Z,4.86
2022-10-11T03:00:49.775Z,4.87
2022-10-11T03:03:20.862Z,4.87
2022-10-11T03:05:51.887Z,4.91
2022-10-11T03:08:22.912Z,4.93
2022-10-11T03:10:54.103Z,4.93
2022-10-11T03:13:25.202Z,4.94
2022-10-11T03:16:03.363Z,4.95
2022-10-11T03:18:30.131Z,4.97
2022-10-11T03:21:01.711Z,4.97
2022-10-11T03:23:32.890Z,4.96
2022-10-11T03:26:04.483Z,4.95
2022-10-11T03:28:36.041Z,4.93
2022-10-11T03:31:07.069Z,4.95
2022-10-11T03:33:38.249Z,4.97
2022-10-11T03:36:09.574Z,5.00
2022-10-11T03:38:40.724Z,5.04
2022-10-11T03:41:11.827Z,5.04
2022-10-11T03:43:43.017Z,5.04
2022-10-11T03:46:14.198Z,5.06
2022-10-11T03:48:45.411Z,5.10
2022-10-11T03:51:16.678Z,5.13
2022-10-11T03:53:47.706Z,5.13
2022-10-11T03:56:19.343Z,5.13
2022-10-11T03:58:50.455Z,5.13
2022-10-11T04:01:21.556Z,5.15
2022-10-11T04:03:54.026Z,5.16
2022-10-11T04:06:25.842Z,5.17
2022-10-11T04:08:57.196Z,5.18
2022-10-11T04:11:28.289Z,5.24
2022-10-11T04:13:59.442Z,5.26
2022-10-11T04:16:30.660Z,5.32
2022-10-11T04:19:01.845Z,5.32
2022-10-11T04:21:32.967Z,5.34
2022-10-11T04:24:04.307Z,5.37
2022-10-11T04:26:35.493Z,5.45
2022-10-11T04:29:06.710Z,5.49
2022-10-11T04:31:37.943Z,5.55
2022-10-11T04:34:09.647Z,5.60
2022-10-11T04:36:40.914Z,5.72
2022-10-11T04:39:13.179Z,6.16
2022-10-11T04:41:44.603Z,6.65
2022-10-11T04:44:15.872Z,7.05
2022-10-11T04:46:47.059Z,7.93
2022-10-11T04:49:18.305Z,8.37
2022-10-11T04:51:49.345Z,8.43
2022-10-11T04:54:20.631Z,8.34
2022-10-11T04:56:51.719Z,8.39
2022-10-11T04:59:23.024Z,8.85
2022-10-11T05:01:54.510Z,9.10
2022-10-11T05:04:26.092Z,9.69
2022-10-11T05:06:57.543Z,9.94
2022-10-11T05:09:28.675Z,10.32
2022-10-11T05:11:59.727Z,10.80
2022-10-11T05:14:31.485Z,11.06
2022-10-11T05:17:02.781Z,11.24
2022-10-11T05:19:34.074Z,11.43
2022-10-11T05:22:05.474Z,11.99
2022-10-11T05:24:36.468Z,12.17
2022-10-11T05:27:07.537Z,12.06
2022-10-11T05:29:38.662Z,12.13
2022-10-11T05:32:09.765Z,12.49
2022-10-11T05:34:41.033Z,13.00
2022-10-11T05:37:12.524Z,13.29
2022-10-11T05:39:44.189Z,13.54
2022-10-11T05:42:15.266Z,13.60
2022-10-11T05:44:46.539Z,13.85
2022-10-11T05:47:17.780Z,13.75
2022-10-11T05:49:49.029Z,13.66
2022-10-11T05:52:21.935Z,14.01
2022-10-11T05:54:53.076Z,14.67
2022-10-11T05:57:24.345Z,14.92
2022-10-11T05:59:55.782Z,15.02
2022-10-11T06:02:26.920Z,14.96
2022-10-11T06:04:58.247Z,14.62
2022-10-11T06:07:29.311Z,14.03
2022-10-11T06:10:00.531Z,13.46
2022-10-11T06:12:32.624Z,13.25
2022-10-11T06:15:04.623Z,13.37
2022-10-11T06:17:35.839Z,13.27
2022-10-11T06:20:07.790Z,13.29
2022-10-11T06:22:39.236Z,13.41
2022-10-11T06:25:11.359Z,13.75
2022-10-11T06:27:42.368Z,13.91
2022-10-11T06:30:14.529Z,13.75
2022-10-11T06:32:45.522Z,13.38
2022-10-11T06:35:16.850Z,13.08
2022-10-11T06:37:47.939Z,12.89
2022-10-11T06:40:19.017Z,12.69
2022-10-11T06:42:50.779Z,12.40
2022-10-11T06:45:22.187Z,12.10
2022-10-11T06:47:53.490Z,11.85
2022-10-11T06:50:47.062Z,11.67
2022-10-11T06:52:57.499Z,11.54
2022-10-11T06:55:28.696Z,11.44
2022-10-11T06:57:59.762Z,11.38
2022-10-11T07:00:31.071Z,11.32
2022-10-11T07:03:02.161Z,11.27
2022-10-11T07:05:34.812Z,11.19
2022-10-11T07:08:06.134Z,11.12
2022-10-11T07:10:37.399Z,11.06
2022-10-11T07:13:09.923Z,11.03
2022-10-11T07:15:41.883Z,11.00
2022-10-11T07:18:13.118Z,11.02
2022-10-11T07:20:44.468Z,11.03
2022-10-11T07:23:15.762Z,11.08
2022-10-11T07:25:47.459Z,11.10
2022-10-11T07:28:18.801Z,11.12
2022-10-11T07:30:49.935Z,11.17
2022-10-11T07:33:21.028Z,11.19
2022-10-11T07:35:52.539Z,11.20
2022-10-11T07:38:23.621Z,11.21
2022-10-11T07:40:55.003Z,11.22
2022-10-11T07:43:26.171Z,11.23
2022-10-11T07:45:58.911Z,11.20
2022-10-11T07:48:30.426Z,11.22
2022-10-11T07:51:07.068Z,11.25
2022-10-11T07:53:42.360Z,11.26
2022-10-11T07:56:15.658Z,11.29
2022-10-11T07:58:55.506Z,11.29
2022-10-11T08:01:28.293Z,11.25
2022-10-11T08:04:00.362Z,11.28
2022-10-11T08:06:32.969Z,11.31
2022-10-11T08:09:05.959Z,11.31
2022-10-11T08:11:38.829Z,11.33
2022-10-11T08:14:11.588Z,11.35
2022-10-11T08:16:42.850Z,11.38
2022-10-11T08:19:14.033Z,11.45
2022-10-11T08:21:45.798Z,11.50
2022-10-11T08:24:18.647Z,11.60
2022-10-11T08:26:50.624Z,11.70
2022-10-11T08:29:22.120Z,11.81
2022-10-11T08:31:53.396Z,11.83
2022-10-11T08:34:24.437Z,11.80
2022-10-11T08:36:55.600Z,11.73
2022-10-11T08:39:26.785Z,11.67
2022-10-11T08:42:03.870Z,11.63
2022-10-11T08:45:09.488Z,11.59
2022-10-11T08:47:25.675Z,11.59
2022-10-11T08:49:57.375Z,11.61
2022-10-11T08:52:35.076Z,11.61
2022-10-11T08:55:09.492Z,11.61
2022-10-11T08:57:43.420Z,11.62
2022-10-11T09:00:18.274Z,11.66
2022-10-11T09:03:26.421Z,11.69
2022-10-11T09:06:17.673Z,11.71
2022-10-11T09:08:58.392Z,11.73
2022-10-11T09:11:39.466Z,11.78
2022-10-11T09:14:17.484Z,11.84
2022-10-11T09:16:58.575Z,11.84
2022-10-11T09:20:06.053Z,11.82
2022-10-11T09:22:42.752Z,11.85
2022-10-11T09:25:20.809Z,11.89
2022-10-11T09:28:03.692Z,11.91
2022-10-11T09:30:34.347Z,11.92
2022-10-11T09:33:20.749Z,11.95
2022-10-11T09:35:54.173Z,12.01
2022-10-11T09:38:44.457Z,12.04
2022-10-11T09:41:37.454Z,12.04
2022-10-11T09:44:11.786Z,12.05
2022-10-11T09:46:44.657Z,12.06
2022-10-11T09:49:19.818Z,12.08
2022-10-11T09:51:57.445Z,12.08
2022-10-11T09:54:40.450Z,12.08
2022-10-11T09:57:33.261Z,12.11
2022-10-11T10:00:23.185Z,12.14
2022-10-11T10:02:58.218Z,12.17
2022-10-11T10:05:33.082Z,12.19
2022-10-11T10:08:14.079Z,12.25
2022-10-11T10:11:02.223Z,12.26
2022-10-11T10:13:51.957Z,12.31
2022-10-11T10:16:35.066Z,12.32
2022-10-11T10:19:10.416Z,12.33
2022-10-11T10:21:48.406Z,12.35
2022-10-11T10:24:38.468Z,12.38
2022-10-11T10:27:24.481Z,12.38
2022-10-11T10:30:14.802Z,12.41
2022-10-11T10:33:02.019Z,12.45
2022-10-11T10:35:45.976Z,12.47
2022-10-11T10:38:32.948Z,12.46
2022-10-11T10:41:09.181Z,12.35
2022-10-11T10:43:44.083Z,12.47
2022-10-11T10:46:37.169Z,12.47
2022-10-11T10:49:52.974Z,12.48
2022-10-11T10:52:17.110Z,12.48
2022-10-11T10:55:06.746Z,12.45
2022-10-11T10:57:44.263Z,12.38
2022-10-11T11:00:21.640Z,12.36
2022-10-11T11:02:59.973Z,12.37
2022-10-11T11:05:40.795Z,12.38
2022-10-11T11:08:32.117Z,12.42
2022-10-11T11:11:07.194Z,12.45
2022-10-11T11:13:44.705Z,12.50
2022-10-11T11:16:19.860Z,12.50
2022-10-11T11:19:12.855Z,12.51
2022-10-11T11:21:51.448Z,12.51
2022-10-11T11:24:35.093Z,12.51
2022-10-11T11:27:26.763Z,12.53
2022-10-11T11:30:13.987Z,12.51
2022-10-11T11:33:07.039Z,12.51
2022-10-11T11:35:45.601Z,12.51
2022-10-11T11:38:38.735Z,12.50
2022-10-11T11:41:22.535Z,12.53
2022-10-11T11:44:03.257Z,12.54
2022-10-11T11:46:38.314Z,12.55
2022-10-11T11:49:20.246Z,12.58
2022-10-11T11:51:53.898Z,12.62
2022-10-11T11:54:46.829Z,12.66
2022-10-11T11:57:27.947Z,12.69
2022-10-11T12:00:08.819Z,12.74
2022-10-11T12:02:57.493Z,12.78
2022-10-11T12:05:33.057Z,12.84
2022-10-11T12:08:29.285Z,12.86
2022-10-11T12:11:04.666Z,12.89
2022-10-11T12:13:39.315Z,12.93
2022-10-11T12:16:16.424Z,12.97
2022-10-11T12:18:51.391Z,13.02
2022-10-11T12:21:38.003Z,13.05
2022-10-11T12:24:21.936Z,13.10
2022-10-11T12:26:59.886Z,13.19
2022-10-11T12:29:51.907Z,13.35
2022-10-11T12:32:39.672Z,13.66
2022-10-11T12:35:34.595Z,14.28
2022-10-11T12:38:16.546Z,15.64
2022-10-11T12:40:50.829Z,17.50
2022-10-11T12:43:31.560Z,19.23
2022-10-11T12:46:31.918Z,20.75
2022-10-11T12:49:10.148Z,22.05
2022-10-11T12:51:45.197Z,23.11
2022-10-11T12:54:32.118Z,23.66
2022-10-11T12:57:12.437Z,24.05
2022-10-11T12:59:48.415Z,24.35
2022-10-11T13:02:32.774Z,24.40
2022-10-11T13:05:25.735Z,24.48
2022-10-11T13:08:01.111Z,24.90
2022-10-11T13:10:39.349Z,25.50
2022-10-11T13:13:17.813Z,25.96
2022-10-11T13:15:51.576Z,26.10
2022-10-11T13:18:25.614Z,26.26
2022-10-11T13:20:57.681Z,26.57
2022-10-11T13:23:33.019Z,26.73
2022-10-11T13:26:05.286Z,26.88
2022-10-11T13:28:37.975Z,27.04
2022-10-11T13:31:11.093Z,27.05
2022-10-11T13:33:46.057Z,26.35
2022-10-11T13:36:18.626Z,24.79
2022-10-11T13:38:56.132Z,24.41
2022-10-11T13:41:30.608Z,21.51
2022-10-11T13:44:04.182Z,19.89
2022-10-11T13:46:41.623Z,18.67
2022-10-11T13:49:34.694Z,17.67
2022-10-11T13:52:10.062Z,16.82
2022-10-11T13:55:08.422Z,16.07
2022-10-11T13:57:46.494Z,15.50
2022-10-11T14:00:27.325Z,15.02
2022-10-11T14:03:05.158Z,14.64
2022-10-11T14:05:41.325Z,13.99
2022-10-11T14:08:22.853Z,13.99
2022-10-11T14:10:57.815Z,13.75
2022-10-11T14:13:50.183Z,13.52
2022-10-11T14:16:25.339Z,13.33
2022-10-11T14:19:03.199Z,13.12
2022-10-11T14:21:48.628Z,12.91
2022-10-11T14:24:22.741Z,12.73
2022-10-11T14:26:57.026Z,12.57
2022-10-11T14:29:32.118Z,12.40
2022-10-11T14:32:10.132Z,12.26
2022-10-11T14:34:43.896Z,12.15
2022-10-11T14:37:18.087Z,12.02
2022-10-11T14:39:51.062Z,11.89
2022-10-11T14:42:23.538Z,11.76
2022-10-11T14:44:55.745Z,11.64
2022-10-11T14:47:27.932Z,11.51
2022-10-11T14:50:00.158Z,11.41
2022-10-11T14:52:32.985Z,11.29
2022-10-11T14:55:05.438Z,11.19
2022-10-11T14:57:37.832Z,11.10
2022-10-11T15:00:18.191Z,10.98
2022-10-11T15:02:53.089Z,10.88
2022-10-11T15:05:32.648Z,10.77
2022-10-11T15:08:02.207Z,10.70
2022-10-11T15:10:42.049Z,10.61
2022-10-11T15:13:14.371Z,10.53
2022-10-11T15:15:47.214Z,10.45
2022-10-11T15:18:20.969Z,10.43
2022-10-11T15:20:54.778Z,10.42
2022-10-11T15:23:26.713Z,10.41
2022-10-11T15:25:58.948Z,10.39
2022-10-11T15:28:33.175Z,10.35
2022-10-11T15:31:05.471Z,10.31
2022-10-11T15:33:38.553Z,10.27
2022-10-11T15:36:13.899Z,10.20
2022-10-11T15:38:47.122Z,10.13
2022-10-11T15:41:21.031Z,10.07
2022-10-11T15:43:53.568Z,10.02
2022-10-11T15:46:25.847Z,9.98
2022-10-11T15:48:58.175Z,9.94
2022-10-11T15:51:30.498Z,9.95
2022-10-11T15:54:03.157Z,9.93
2022-10-11T15:56:35.542Z,9.92
2022-10-11T15:59:07.762Z,9.90
2022-10-11T16:01:40.087Z,9.86
2022-10-11T16:04:12.189Z,9.82
2022-10-11T16:06:44.508Z,9.80
2022-10-11T16:09:16.847Z,9.77
2022-10-11T16:11:48.990Z,9.71
2022-10-11T16:14:20.938Z,9.67
2022-10-11T16:16:52.971Z,9.62
2022-10-11T16:19:24.972Z,9.60
2022-10-11T16:21:57.020Z,9.57
2022-10-11T16:24:29.383Z,9.54
2022-10-11T16:27:01.311Z,9.51
2022-10-11T16:29:33.355Z,9.50
2022-10-11T16:32:05.445Z,9.48
2022-10-11T16:34:37.707Z,9.46
2022-10-11T16:37:09.810Z,9.41
2022-10-11T16:39:42.473Z,9.35
2022-10-11T16:42:14.791Z,9.33
2022-10-11T16:44:47.239Z,9.30
2022-10-11T16:47:19.525Z,9.26
2022-10-11T16:49:51.568Z,9.24
2022-10-11T16:52:23.886Z,9.21
2022-10-11T16:54:56.078Z,9.18
2022-10-11T16:57:28.071Z,9.13
2022-10-11T16:59:59.937Z,9.12
2022-10-11T17:02:33.308Z,9.09
2022-10-11T17:05:05.969Z,9.08
2022-10-11T17:07:37.976Z,9.10
2022-10-11T17:10:10.707Z,9.08
2022-10-11T17:12:46.542Z,9.04
2022-10-11T17:15:16.856Z,9.03
2022-10-11T17:17:48.971Z,9.00
2022-10-11T17:20:21.224Z,8.97
2022-10-11T17:22:55.211Z,8.97
2022-10-11T17:25:28.287Z,8.95
2022-10-11T17:28:00.433Z,8.91
2022-10-11T17:30:32.497Z,8.85
2022-10-11T17:33:05.713Z,8.81
2022-10-11T17:35:37.689Z,8.75
2022-10-11T17:38:09.915Z,8.72
2022-10-11T17:40:41.902Z,8.70
2022-10-11T17:43:15.889Z,8.69
2022-10-11T17:45:50.747Z,8.67
2022-10-11T17:48:23.025Z,8.66
2022-10-11T17:50:55.531Z,8.64
2022-10-11T17:53:27.493Z,8.60
2022-10-11T17:55:59.418Z,8.58
2022-10-11T17:58:31.635Z,8.54
2022-10-11T18:01:10.081Z,8.50
2022-10-11T18:03:42.983Z,8.45
2022-10-11T18:06:14.992Z,8.40
2022-10-11T18:08:46.950Z,8.38
2022-10-11T18:11:21.071Z,8.33
2022-10-11T18:13:53.979Z,8.29
2022-10-11T18:16:29.847Z,8.26
2022-10-11T18:19:04.975Z,8.25
2022-10-11T18:21:38.071Z,8.22
2022-10-11T18:24:16.380Z,8.20
2022-10-11T18:26:48.898Z,8.18
2022-10-11T18:29:21.001Z,8.14
2022-10-11T18:31:53.085Z,8.19
2022-10-11T18:34:25.104Z,8.19
2022-10-11T18:36:57.045Z,8.19
2022-10-11T18:39:29.053Z,8.18
2022-10-11T18:42:02.601Z,8.13
2022-10-11T18:44:34.600Z,8.09
2022-10-11T18:47:06.845Z,8.05
2022-10-11T18:49:38.688Z,7.98
2022-10-11T18:52:11.509Z,7.94
2022-10-11T18:54:43.930Z,7.94
2022-10-11T18:57:15.838Z,7.95
2022-10-11T18:59:47.844Z,7.93
2022-10-11T19:02:19.907Z,7.90
2022-10-11T19:04:53.066Z,7.88
2022-10-11T19:07:25.266Z,7.83
2022-10-11T19:09:57.197Z,7.81
2022-10-11T19:12:29.237Z,7.80
2022-10-11T19:15:01.889Z,7.81
2022-10-11T19:17:33.977Z,7.77
2022-10-11T19:20:06.331Z,7.73
2022-10-11T19:22:38.452Z,7.69
2022-10-11T19:25:10.472Z,7.67
2022-10-11T19:27:42.587Z,7.67
2022-10-11T19:30:14.683Z,7.65
2022-10-11T19:32:46.576Z,7.62
2022-10-11T19:35:20.031Z,7.63
2022-10-11T19:37:52.116Z,7.65
2022-10-11T19:40:23.976Z,7.64
2022-10-11T19:42:55.981Z,7.62
2022-10-11T19:45:28.076Z,7.59
2022-10-11T19:48:00.088Z,7.59
2022-10-11T19:50:32.053Z,7.59
2022-10-11T19:53:04.018Z,7.54
2022-10-11T19:55:36.695Z,7.47
2022-10-11T19:58:08.840Z,7.42
2022-10-11T20:00:40.807Z,7.39
2022-10-11T20:03:12.714Z,7.31
2022-10-11T20:05:44.845Z,7.24
2022-10-11T20:08:17.198Z,7.21
2022-10-11T20:10:49.076Z,7.19
2022-10-11T20:13:21.095Z,7.11
2022-10-11T20:15:58.343Z,7.04
2022-10-11T20:18:31.022Z,6.99
2022-10-11T20:21:06.164Z,6.95
2022-10-11T20:23:38.356Z,6.90
2022-10-11T20:26:13.614Z,6.90
2022-10-11T20:28:46.556Z,6.92
2022-10-11T20:31:26.004Z,6.91
2022-10-11T20:34:00.980Z,6.90
2022-10-11T20:36:33.870Z,6.87
2022-10-11T20:39:07.361Z,6.86
2022-10-11T20:41:40.148Z,6.86
2022-10-11T20:44:13.330Z,6.85
2022-10-11T20:46:45.206Z,6.81
2022-10-11T20:49:20.150Z,6.74
2022-10-11T20:51:52.096Z,6.69
2022-10-11T20:54:24.090Z,6.66
2022-10-11T20:56:57.672Z,6.63
2022-10-11T20:59:29.759Z,6.62
2022-10-11T21:02:01.727Z,6.59
2022-10-11T21:04:33.859Z,6.55
2022-10-11T21:07:05.901Z,6.52
2022-10-11T21:09:37.937Z,6.51
2022-10-11T21:12:09.895Z,6.46
2022-10-11T21:14:42.267Z,6.44
2022-10-11T21:17:15.186Z,6.39
2022-10-11T21:19:47.119Z,6.35
2022-10-11T21:22:18.980Z,6.33
2022-10-11T21:24:51.190Z,6.31
2022-10-11T21:27:24.862Z,6.30
2022-10-11T21:29:57.182Z,6.27
2022-10-11T21:32:29.356Z,6.24
2022-10-11T21:35:01.568Z,6.21
2022-10-11T21:37:34.163Z,6.20
2022-10-11T21:40:06.653Z,6.15
2022-10-11T21:42:39.052Z,6.15
2022-10-11T21:45:11.253Z,6.10
2022-10-11T21:47:46.399Z,6.09
2022-10-11T21:50:18.434Z,6.06
2022-10-11T21:52:50.548Z,6.05
2022-10-11T21:55:22.414Z,6.01
2022-10-11T21:57:54.270Z,5.99
2022-10-11T22:00:26.311Z,5.94
2022-10-11T22:02:58.368Z,5.91
2022-10-11T22:05:30.406Z,5.87
2022-10-11T22:08:02.460Z,5.84
2022-10-11T22:10:35.144Z,5.87
2022-10-11T22:13:07.079Z,5.82
2022-10-11T22:15:38.889Z,5.81
2022-10-11T22:18:10.815Z,5.81
2022-10-11T22:20:42.729Z,5.76
2022-10-11T22:23:14.801Z,5.75
2022-10-11T22:25:47.192Z,5.71
2022-10-11T22:28:19.571Z,5.72
2022-10-11T22:30:51.636Z,5.69
2022-10-11T22:33:23.567Z,5.64
2022-10-11T22:35:57.775Z,5.63
2022-10-11T22:38:30.087Z,5.58
2022-10-11T22:41:02.041Z,5.58
2022-10-11T22:43:34.439Z,5.56
2022-10-11T22:46:07.442Z,5.56
2022-10-11T22:48:39.471Z,5.56
2022-10-11T22:51:11.366Z,5.55
2022-10-11T22:53:43.492Z,5.52
2022-10-11T22:56:15.459Z,5.50
2022-10-11T22:58:47.415Z,5.47
2022-10-11T23:01:19.578Z,5.46
2022-10-11T23:03:51.621Z,5.44
2022-10-11T23:06:23.801Z,5.43
2022-10-11T23:08:55.878Z,5.42
2022-10-11T23:11:28.504Z,5.50
2022-10-11T23:14:00.634Z,5.54
2022-10-11T23:16:32.496Z,5.57
2022-10-11T23:19:04.598Z,5.58
2022-10-11T23:21:36.701Z,5.55
2022-10-11T23:24:08.844Z,5.61
2022-10-11T23:26:40.847Z,5.55
2022-10-11T23:29:12.779Z,5.50
2022-10-11T23:31:46.668Z,5.47
2022-10-11T23:34:18.903Z,5.45
2022-10-11T23:36:51.128Z,5.43
2022-10-11T23:39:23.011Z,5.45
2022-10-11T23:41:55.290Z,5.43
2022-10-11T23:44:27.255Z,5.41
2022-10-11T23:46:59.241Z,5.39
2022-10-11T23:49:31.162Z,5.35
2022-10-11T23:52:03.351Z,5.33
2022-10-11T23:54:35.178Z,5.32
2022-10-11T23:57:07.368Z,5.39
2022-10-11T23:59:39.582Z,5.43
